sensor_id;sensor_type;location;lat;lon;timestamp;P1;durP1;ratioP1;P2;durP2;ratioP2
5416;SDS011;2731;50.754;12.990;2023-04-30T11:07:24;8.52;;;4.45;;
5416;SDS011;2731;50.754;12.990;2023-04-30T11:09:52;10.52;;;4.35;;
5416;SDS011;2731;50.754;12.990;2023-04-30T11:12:21;13.00;;;4.90;;
5416;SDS011;2731;50.754;12.990;2023-04-30T11:14:52;7.13;;;4.25;;
5416;SDS011;2731;50.754;12.990;2023-04-30T11:17:22;8.10;;;4.97;;
5416;SDS011;2731;50.754;12.990;2023-04-30T11:19:49;8.20;;;4.78;;
5416;SDS011;2731;50.754;12.990;2023-04-30T11:22:16;9.18;;;4.32;;
5416;SDS011;2731;50.754;12.990;2023-04-30T11:27:18;8.95;;;3.58;;
5416;SDS011;2731;50.754;12.990;2023-04-30T11:29:45;9.27;;;4.22;;
5416;SDS011;2731;50.754;12.990;2023-04-30T11:32:11;6.40;;;3.88;;
5416;SDS011;2731;50.754;12.990;2023-04-30T11:34:38;5.82;;;3.70;;
5416;SDS011;2731;50.754;12.990;2023-04-30T11:37:05;6.05;;;4.07;;
5416;SDS011;2731;50.754;12.990;2023-04-30T11:39:32;8.40;;;4.10;;
5416;SDS011;2731;50.754;12.990;2023-04-30T11:42:03;8.50;;;4.43;;
5416;SDS011;2731;50.754;12.990;2023-04-30T11:44:29;8.48;;;4.47;;
5416;SDS011;2731;50.754;12.990;2023-04-30T11:46:55;6.45;;;4.10;;
5416;SDS011;2731;50.754;12.990;2023-04-30T11:49:22;7.05;;;4.07;;
5416;SDS011;2731;50.754;12.990;2023-04-30T11:51:48;5.07;;;3.70;;
5416;SDS011;2731;50.754;12.990;2023-04-30T11:54:15;9.90;;;3.75;;
5416;SDS011;2731;50.754;12.990;2023-04-30T11:56:45;8.98;;;3.97;;
5416;SDS011;2731;50.754;12.990;2023-04-30T11:59:15;6.90;;;3.75;;
5416;SDS011;2731;50.754;12.990;2023-04-30T12:01:42;5.43;;;3.25;;
5416;SDS011;2731;50.754;12.990;2023-04-30T12:04:08;18.08;;;4.90;;
5416;SDS011;2731;50.754;12.990;2023-04-30T12:06:35;6.32;;;3.47;;
5416;SDS011;2731;50.754;12.990;2023-04-30T12:09:02;6.35;;;4.13;;
5416;SDS011;2731;50.754;12.990;2023-04-30T12:11:33;4.95;;;3.53;;
5416;SDS011;2731;50.754;12.990;2023-04-30T12:14:01;8.15;;;3.88;;
5416;SDS011;2731;50.754;12.990;2023-04-30T12:16:28;8.25;;;3.60;;
5416;SDS011;2731;50.754;12.990;2023-04-30T12:19:03;5.35;;;3.50;;
5416;SDS011;2731;50.754;12.990;2023-04-30T12:21:29;5.28;;;3.65;;
5416;SDS011;2731;50.754;12.990;2023-04-30T12:23:55;9.55;;;3.75;;
5416;SDS011;2731;50.754;12.990;2023-04-30T12:26:22;11.25;;;3.53;;
5416;SDS011;2731;50.754;12.990;2023-04-30T12:28:48;5.15;;;3.55;;
5416;SDS011;2731;50.754;12.990;2023-04-30T12:31:18;5.80;;;3.28;;
5416;SDS011;2731;50.754;12.990;2023-04-30T12:33:52;7.10;;;3.40;;
5416;SDS011;2731;50.754;12.990;2023-04-30T12:36:18;5.10;;;3.03;;
5416;SDS011;2731;50.754;12.990;2023-04-30T12:38:45;7.95;;;4.05;;
5416;SDS011;2731;50.754;12.990;2023-04-30T12:41:11;8.73;;;2.90;;
5416;SDS011;2731;50.754;12.990;2023-04-30T12:43:41;8.18;;;3.05;;
5416;SDS011;2731;50.754;12.990;2023-04-30T12:46:07;8.05;;;3.63;;
5416;SDS011;2731;50.754;12.990;2023-04-30T12:48:42;4.53;;;3.10;;
5416;SDS011;2731;50.754;12.990;2023-04-30T12:51:09;5.68;;;2.85;;
5416;SDS011;2731;50.754;12.990;2023-04-30T12:53:45;7.80;;;3.72;;
5416;SDS011;2731;50.754;12.990;2023-04-30T12:56:12;9.55;;;3.10;;
5416;SDS011;2731;50.754;12.990;2023-04-30T12:58:39;6.25;;;2.95;;
5416;SDS011;2731;50.754;12.990;2023-04-30T13:01:12;6.22;;;2.83;;
5416;SDS011;2731;50.754;12.990;2023-04-30T13:03:39;3.47;;;2.47;;
5416;SDS011;2731;50.754;12.990;2023-04-30T13:06:05;3.55;;;2.55;;
5416;SDS011;2731;50.754;12.990;2023-04-30T13:08:31;7.15;;;2.67;;
5416;SDS011;2731;50.754;12.990;2023-04-30T13:10:57;8.05;;;2.42;;
5416;SDS011;2731;50.754;12.990;2023-04-30T13:13:23;5.78;;;2.95;;
5416;SDS011;2731;50.754;12.990;2023-04-30T13:15:49;4.65;;;2.60;;
5416;SDS011;2731;50.754;12.990;2023-04-30T13:18:15;5.22;;;2.50;;
5416;SDS011;2731;50.754;12.990;2023-04-30T13:20:42;5.45;;;2.92;;
5416;SDS011;2731;50.754;12.990;2023-04-30T13:23:08;9.40;;;2.53;;
5416;SDS011;2731;50.754;12.990;2023-04-30T13:25:36;4.05;;;2.30;;
5416;SDS011;2731;50.754;12.990;2023-04-30T13:28:02;5.57;;;2.92;;
5416;SDS011;2731;50.754;12.990;2023-04-30T13:30:28;3.10;;;2.30;;
5416;SDS011;2731;50.754;12.990;2023-04-30T13:32:54;6.75;;;3.20;;
5416;SDS011;2731;50.754;12.990;2023-04-30T13:35:20;4.55;;;2.50;;
5416;SDS011;2731;50.754;12.990;2023-04-30T13:37:47;9.25;;;3.60;;
5416;SDS011;2731;50.754;12.990;2023-04-30T13:40:13;4.38;;;2.22;;
5416;SDS011;2731;50.754;12.990;2023-04-30T13:42:40;6.38;;;2.10;;
5416;SDS011;2731;50.754;12.990;2023-04-30T13:45:10;5.75;;;2.63;;
5416;SDS011;2731;50.754;12.990;2023-04-30T13:47:36;6.07;;;2.28;;
5416;SDS011;2731;50.754;12.990;2023-04-30T13:50:03;5.20;;;2.05;;
5416;SDS011;2731;50.754;12.990;2023-04-30T13:52:29;4.85;;;2.47;;
5416;SDS011;2731;50.754;12.990;2023-04-30T13:54:55;5.32;;;2.35;;
5416;SDS011;2731;50.754;12.990;2023-04-30T13:57:22;11.90;;;1.80;;
5416;SDS011;2731;50.754;12.990;2023-04-30T13:59:48;3.83;;;2.03;;
5416;SDS011;2731;50.754;12.990;2023-04-30T14:02:14;2.92;;;1.85;;
5416;SDS011;2731;50.754;12.990;2023-04-30T14:04:40;5.03;;;2.03;;
5416;SDS011;2731;50.754;12.990;2023-04-30T14:07:07;4.22;;;1.77;;
5416;SDS011;2731;50.754;12.990;2023-04-30T14:09:33;4.05;;;1.70;;
5416;SDS011;2731;50.754;12.990;2023-04-30T14:12:00;3.90;;;2.33;;
5416;SDS011;2731;50.754;12.990;2023-04-30T14:14:27;4.63;;;1.88;;
5416;SDS011;2731;50.754;12.990;2023-04-30T14:16:53;4.78;;;2.05;;
5416;SDS011;2731;50.754;12.990;2023-04-30T14:19:20;4.25;;;1.67;;
5416;SDS011;2731;50.754;12.990;2023-04-30T14:21:47;3.50;;;1.48;;
5416;SDS011;2731;50.754;12.990;2023-04-30T14:24:13;4.82;;;2.10;;
5416;SDS011;2731;50.754;12.990;2023-04-30T14:26:43;3.65;;;1.92;;
5416;SDS011;2731;50.754;12.990;2023-04-30T14:29:09;5.45;;;2.08;;
5416;SDS011;2731;50.754;12.990;2023-04-30T14:31:36;5.88;;;2.20;;
5416;SDS011;2731;50.754;12.990;2023-04-30T14:34:02;16.73;;;2.15;;
5416;SDS011;2731;50.754;12.990;2023-04-30T14:36:28;4.38;;;1.98;;
5416;SDS011;2731;50.754;12.990;2023-04-30T14:38:54;8.25;;;2.28;;
5416;SDS011;2731;50.754;12.990;2023-04-30T14:41:20;6.10;;;2.20;;
5416;SDS011;2731;50.754;12.990;2023-04-30T14:43:46;5.90;;;2.83;;
5416;SDS011;2731;50.754;12.990;2023-04-30T14:46:13;7.15;;;2.67;;
5416;SDS011;2731;50.754;12.990;2023-04-30T14:48:40;6.90;;;2.25;;
5416;SDS011;2731;50.754;12.990;2023-04-30T14:51:06;7.63;;;2.30;;
5416;SDS011;2731;50.754;12.990;2023-04-30T14:53:32;5.13;;;2.17;;
5416;SDS011;2731;50.754;12.990;2023-04-30T14:55:58;2.55;;;1.70;;
5416;SDS011;2731;50.754;12.990;2023-04-30T14:58:24;3.80;;;1.90;;
5416;SDS011;2731;50.754;12.990;2023-04-30T15:00:50;3.38;;;1.92;;
5416;SDS011;2731;50.754;12.990;2023-04-30T15:03:16;5.75;;;1.90;;
5416;SDS011;2731;50.754;12.990;2023-04-30T15:05:42;6.45;;;2.70;;
5416;SDS011;2731;50.754;12.990;2023-04-30T15:08:08;6.60;;;2.20;;
5416;SDS011;2731;50.754;12.990;2023-04-30T15:10:34;4.60;;;2.78;;
5416;SDS011;2731;50.754;12.990;2023-04-30T15:13:03;6.82;;;3.30;;
5416;SDS011;2731;50.754;12.990;2023-04-30T15:15:29;3.72;;;1.95;;
5416;SDS011;2731;50.754;12.990;2023-04-30T15:17:56;7.32;;;2.70;;
5416;SDS011;2731;50.754;12.990;2023-04-30T15:20:22;3.58;;;2.33;;
5416;SDS011;2731;50.754;12.990;2023-04-30T15:22:49;5.20;;;2.42;;
5416;SDS011;2731;50.754;12.990;2023-04-30T15:25:17;2.00;;;1.58;;
5416;SDS011;2731;50.754;12.990;2023-04-30T15:27:43;4.43;;;2.35;;
5416;SDS011;2731;50.754;12.990;2023-04-30T15:30:09;3.40;;;1.70;;
5416;SDS011;2731;50.754;12.990;2023-04-30T15:32:35;4.72;;;1.50;;
5416;SDS011;2731;50.754;12.990;2023-04-30T15:35:06;5.80;;;1.85;;
5416;SDS011;2731;50.754;12.990;2023-04-30T15:37:33;3.92;;;1.70;;
5416;SDS011;2731;50.754;12.990;2023-04-30T15:40:02;3.72;;;2.28;;
5416;SDS011;2731;50.754;12.990;2023-04-30T15:42:32;2.95;;;1.50;;
5416;SDS011;2731;50.754;12.990;2023-04-30T15:44:58;3.90;;;2.15;;
5416;SDS011;2731;50.754;12.990;2023-04-30T15:47:25;5.05;;;2.00;;
5416;SDS011;2731;50.754;12.990;2023-04-30T15:49:51;5.13;;;2.20;;
5416;SDS011;2731;50.754;12.990;2023-04-30T15:52:17;3.95;;;1.25;;
5416;SDS011;2731;50.754;12.990;2023-04-30T15:54:44;5.45;;;1.77;;
5416;SDS011;2731;50.754;12.990;2023-04-30T15:57:10;3.70;;;1.88;;
5416;SDS011;2731;50.754;12.990;2023-04-30T15:59:36;7.32;;;2.53;;
5416;SDS011;2731;50.754;12.990;2023-04-30T16:02:02;4.22;;;1.75;;
5416;SDS011;2731;50.754;12.990;2023-04-30T16:04:28;3.85;;;1.80;;
5416;SDS011;2731;50.754;12.990;2023-04-30T16:06:55;4.05;;;2.30;;
5416;SDS011;2731;50.754;12.990;2023-04-30T16:09:21;4.38;;;2.05;;
5416;SDS011;2731;50.754;12.990;2023-04-30T16:11:48;3.00;;;2.20;;
5416;SDS011;2731;50.754;12.990;2023-04-30T16:14:14;6.82;;;3.10;;
5416;SDS011;2731;50.754;12.990;2023-04-30T16:16:42;6.13;;;3.05;;
5416;SDS011;2731;50.754;12.990;2023-04-30T16:19:08;3.90;;;2.17;;
5416;SDS011;2731;50.754;12.990;2023-04-30T16:21:36;3.85;;;2.58;;
5416;SDS011;2731;50.754;12.990;2023-04-30T16:24:06;4.03;;;2.40;;
5416;SDS011;2731;50.754;12.990;2023-04-30T16:26:33;5.03;;;3.20;;
5416;SDS011;2731;50.754;12.990;2023-04-30T16:29:00;7.47;;;2.30;;
5416;SDS011;2731;50.754;12.990;2023-04-30T16:31:26;3.30;;;1.67;;
5416;SDS011;2731;50.754;12.990;2023-04-30T16:33:52;6.90;;;2.80;;
5416;SDS011;2731;50.754;12.990;2023-04-30T16:36:18;5.55;;;2.13;;
5416;SDS011;2731;50.754;12.990;2023-04-30T16:38:45;6.43;;;1.65;;
5416;SDS011;2731;50.754;12.990;2023-04-30T16:41:13;4.53;;;2.17;;
5416;SDS011;2731;50.754;12.990;2023-04-30T16:43:39;4.13;;;2.00;;
5416;SDS011;2731;50.754;12.990;2023-04-30T16:46:05;3.47;;;1.98;;
5416;SDS011;2731;50.754;12.990;2023-04-30T16:51:58;6.85;;;2.47;;
5416;SDS011;2731;50.754;12.990;2023-04-30T16:54:27;4.78;;;2.10;;
5416;SDS011;2731;50.754;12.990;2023-04-30T16:56:53;4.82;;;3.15;;
5416;SDS011;2731;50.754;12.990;2023-04-30T16:59:20;5.95;;;2.95;;
5416;SDS011;2731;50.754;12.990;2023-04-30T17:01:48;6.32;;;2.45;;
5416;SDS011;2731;50.754;12.990;2023-04-30T17:04:14;3.90;;;2.70;;
5416;SDS011;2731;50.754;12.990;2023-04-30T17:06:40;3.22;;;2.20;;
5416;SDS011;2731;50.754;12.990;2023-04-30T17:09:06;5.85;;;2.30;;
5416;SDS011;2731;50.754;12.990;2023-04-30T17:11:33;5.00;;;2.20;;
5416;SDS011;2731;50.754;12.990;2023-04-30T17:13:59;4.25;;;3.55;;
5416;SDS011;2731;50.754;12.990;2023-04-30T17:16:25;5.95;;;3.10;;
5416;SDS011;2731;50.754;12.990;2023-04-30T17:18:51;6.25;;;3.30;;
5416;SDS011;2731;50.754;12.990;2023-04-30T17:21:17;6.07;;;3.17;;
5416;SDS011;2731;50.754;12.990;2023-04-30T17:23:43;3.72;;;2.65;;
5416;SDS011;2731;50.754;12.990;2023-04-30T17:26:09;8.07;;;2.95;;
5416;SDS011;2731;50.754;12.990;2023-04-30T17:28:35;7.03;;;2.85;;
5416;SDS011;2731;50.754;12.990;2023-04-30T17:31:02;8.00;;;3.20;;
5416;SDS011;2731;50.754;12.990;2023-04-30T17:33:30;6.68;;;3.35;;
5416;SDS011;2731;50.754;12.990;2023-04-30T17:35:56;8.55;;;4.43;;
5416;SDS011;2731;50.754;12.990;2023-04-30T17:38:23;8.00;;;3.03;;
5416;SDS011;2731;50.754;12.990;2023-04-30T17:40:49;8.57;;;4.32;;
5416;SDS011;2731;50.754;12.990;2023-04-30T17:43:15;4.93;;;3.78;;
5416;SDS011;2731;50.754;12.990;2023-04-30T17:45:41;9.85;;;6.15;;
5416;SDS011;2731;50.754;12.990;2023-04-30T17:48:08;10.43;;;8.13;;
5416;SDS011;2731;50.754;12.990;2023-04-30T17:50:34;11.02;;;6.18;;
5416;SDS011;2731;50.754;12.990;2023-04-30T17:53:00;10.98;;;5.90;;
5416;SDS011;2731;50.754;12.990;2023-04-30T17:55:26;6.43;;;5.18;;
5416;SDS011;2731;50.754;12.990;2023-04-30T17:57:52;6.78;;;4.70;;
5416;SDS011;2731;50.754;12.990;2023-04-30T18:00:19;11.52;;;4.57;;
5416;SDS011;2731;50.754;12.990;2023-04-30T18:02:45;9.85;;;5.53;;
5416;SDS011;2731;50.754;12.990;2023-04-30T18:05:12;16.17;;;10.82;;
5416;SDS011;2731;50.754;12.990;2023-04-30T18:07:38;22.58;;;13.20;;
5416;SDS011;2731;50.754;12.990;2023-04-30T18:10:05;20.05;;;12.63;;
5416;SDS011;2731;50.754;12.990;2023-04-30T18:12:31;45.97;;;23.05;;
5416;SDS011;2731;50.754;12.990;2023-04-30T18:14:57;25.20;;;13.43;;
5416;SDS011;2731;50.754;12.990;2023-04-30T18:17:23;16.30;;;9.93;;
5416;SDS011;2731;50.754;12.990;2023-04-30T18:19:50;13.45;;;9.35;;
5416;SDS011;2731;50.754;12.990;2023-04-30T18:22:16;26.13;;;17.13;;
5416;SDS011;2731;50.754;12.990;2023-04-30T18:24:43;20.67;;;13.73;;
5416;SDS011;2731;50.754;12.990;2023-04-30T18:27:09;23.13;;;15.82;;
5416;SDS011;2731;50.754;12.990;2023-04-30T18:29:36;16.15;;;12.60;;
5416;SDS011;2731;50.754;12.990;2023-04-30T18:32:02;14.93;;;12.45;;
5416;SDS011;2731;50.754;12.990;2023-04-30T18:34:28;12.10;;;9.02;;
5416;SDS011;2731;50.754;12.990;2023-04-30T18:36:54;34.42;;;22.75;;
5416;SDS011;2731;50.754;12.990;2023-04-30T18:39:20;42.40;;;28.42;;
5416;SDS011;2731;50.754;12.990;2023-04-30T18:41:47;222.32;;;124.13;;
5416;SDS011;2731;50.754;12.990;2023-04-30T18:44:13;35.45;;;23.98;;
5416;SDS011;2731;50.754;12.990;2023-04-30T18:46:39;25.20;;;16.70;;
5416;SDS011;2731;50.754;12.990;2023-04-30T18:49:06;23.20;;;14.40;;
5416;SDS011;2731;50.754;12.990;2023-04-30T18:51:33;18.25;;;12.07;;
5416;SDS011;2731;50.754;12.990;2023-04-30T18:53:59;17.75;;;10.55;;
5416;SDS011;2731;50.754;12.990;2023-04-30T18:56:25;32.78;;;19.23;;
5416;SDS011;2731;50.754;12.990;2023-04-30T18:58:51;41.13;;;28.30;;
5416;SDS011;2731;50.754;12.990;2023-04-30T19:01:17;32.97;;;23.17;;
5416;SDS011;2731;50.754;12.990;2023-04-30T19:03:45;38.47;;;23.60;;
5416;SDS011;2731;50.754;12.990;2023-04-30T19:06:12;39.38;;;24.88;;
5416;SDS011;2731;50.754;12.990;2023-04-30T19:08:38;84.60;;;51.53;;
5416;SDS011;2731;50.754;12.990;2023-04-30T19:11:04;133.88;;;86.63;;
5416;SDS011;2731;50.754;12.990;2023-04-30T19:13:31;84.20;;;48.72;;
5416;SDS011;2731;50.754;12.990;2023-04-30T19:15:57;60.03;;;35.47;;
5416;SDS011;2731;50.754;12.990;2023-04-30T19:18:23;88.78;;;52.92;;
5416;SDS011;2731;50.754;12.990;2023-04-30T19:21:07;85.13;;;45.95;;
5416;SDS011;2731;50.754;12.990;2023-04-30T19:23:33;156.20;;;86.65;;
5416;SDS011;2731;50.754;12.990;2023-04-30T19:26:00;61.20;;;36.35;;
5416;SDS011;2731;50.754;12.990;2023-04-30T19:28:26;64.68;;;39.30;;
5416;SDS011;2731;50.754;12.990;2023-04-30T19:30:52;80.75;;;46.50;;
5416;SDS011;2731;50.754;12.990;2023-04-30T19:33:19;76.80;;;42.00;;
5416;SDS011;2731;50.754;12.990;2023-04-30T19:35:49;109.10;;;60.75;;
5416;SDS011;2731;50.754;12.990;2023-04-30T19:38:17;75.07;;;44.63;;
5416;SDS011;2731;50.754;12.990;2023-04-30T19:40:47;41.47;;;27.92;;
5416;SDS011;2731;50.754;12.990;2023-04-30T19:43:13;32.67;;;22.10;;
5416;SDS011;2731;50.754;12.990;2023-04-30T19:45:50;45.00;;;27.35;;
5416;SDS011;2731;50.754;12.990;2023-04-30T19:48:16;37.50;;;22.80;;
5416;SDS011;2731;50.754;12.990;2023-04-30T19:50:43;36.72;;;24.38;;
5416;SDS011;2731;50.754;12.990;2023-04-30T19:53:11;41.13;;;28.60;;
5416;SDS011;2731;50.754;12.990;2023-04-30T19:55:37;56.97;;;34.28;;
5416;SDS011;2731;50.754;12.990;2023-04-30T19:58:03;57.65;;;34.15;;
5416;SDS011;2731;50.754;12.990;2023-04-30T20:00:30;32.88;;;17.75;;
5416;SDS011;2731;50.754;12.990;2023-04-30T20:02:56;20.20;;;12.98;;
5416;SDS011;2731;50.754;12.990;2023-04-30T20:05:25;25.25;;;13.65;;
5416;SDS011;2731;50.754;12.990;2023-04-30T20:07:52;32.72;;;17.33;;
5416;SDS011;2731;50.754;12.990;2023-04-30T20:10:18;31.83;;;17.48;;
5416;SDS011;2731;50.754;12.990;2023-04-30T20:12:45;38.75;;;19.10;;
5416;SDS011;2731;50.754;12.990;2023-04-30T20:15:11;34.45;;;19.30;;
5416;SDS011;2731;50.754;12.990;2023-04-30T20:17:37;42.75;;;21.88;;
5416;SDS011;2731;50.754;12.990;2023-04-30T20:20:03;41.00;;;22.38;;
5416;SDS011;2731;50.754;12.990;2023-04-30T20:22:29;44.67;;;23.15;;
5416;SDS011;2731;50.754;12.990;2023-04-30T20:24:55;50.78;;;26.35;;
5416;SDS011;2731;50.754;12.990;2023-04-30T20:27:21;45.78;;;26.25;;
5416;SDS011;2731;50.754;12.990;2023-04-30T20:29:49;42.75;;;25.92;;
5416;SDS011;2731;50.754;12.990;2023-04-30T20:32:18;41.83;;;24.73;;
5416;SDS011;2731;50.754;12.990;2023-04-30T20:34:45;82.90;;;45.55;;
5416;SDS011;2731;50.754;12.990;2023-04-30T20:37:11;116.15;;;57.80;;
5416;SDS011;2731;50.754;12.990;2023-04-30T20:39:38;261.58;;;115.82;;
5416;SDS011;2731;50.754;12.990;2023-04-30T20:42:08;98.05;;;49.38;;
5416;SDS011;2731;50.754;12.990;2023-04-30T20:44:34;43.63;;;22.52;;
5416;SDS011;2731;50.754;12.990;2023-04-30T20:47:01;77.75;;;29.58;;
5416;SDS011;2731;50.754;12.990;2023-04-30T20:49:29;87.20;;;36.40;;
5416;SDS011;2731;50.754;12.990;2023-04-30T20:52:08;43.42;;;19.17;;
5416;SDS011;2731;50.754;12.990;2023-04-30T20:54:37;55.15;;;25.33;;
5416;SDS011;2731;50.754;12.990;2023-04-30T20:57:03;61.25;;;31.38;;
5416;SDS011;2731;50.754;12.990;2023-04-30T20:59:53;67.35;;;31.05;;
5416;SDS011;2731;50.754;12.990;2023-04-30T21:02:21;54.08;;;28.38;;
5416;SDS011;2731;50.754;12.990;2023-04-30T21:04:49;63.30;;;34.58;;
5416;SDS011;2731;50.754;12.990;2023-04-30T21:07:16;73.10;;;39.05;;
5416;SDS011;2731;50.754;12.990;2023-04-30T21:09:44;69.22;;;37.28;;
5416;SDS011;2731;50.754;12.990;2023-04-30T21:12:22;75.70;;;41.40;;
5416;SDS011;2731;50.754;12.990;2023-04-30T21:14:53;77.90;;;39.90;;
5416;SDS011;2731;50.754;12.990;2023-04-30T21:17:22;62.13;;;32.95;;
5416;SDS011;2731;50.754;12.990;2023-04-30T21:19:50;59.55;;;30.30;;
5416;SDS011;2731;50.754;12.990;2023-04-30T21:22:17;47.28;;;27.05;;
5416;SDS011;2731;50.754;12.990;2023-04-30T21:24:45;44.85;;;27.02;;
5416;SDS011;2731;50.754;12.990;2023-04-30T21:27:14;48.38;;;26.40;;
5416;SDS011;2731;50.754;12.990;2023-04-30T21:29:42;49.33;;;26.88;;
5416;SDS011;2731;50.754;12.990;2023-04-30T21:32:10;60.75;;;31.95;;
5416;SDS011;2731;50.754;12.990;2023-04-30T21:34:38;59.60;;;32.85;;
5416;SDS011;2731;50.754;12.990;2023-04-30T21:37:05;67.57;;;33.88;;
5416;SDS011;2731;50.754;12.990;2023-04-30T21:39:33;58.50;;;30.27;;
5416;SDS011;2731;50.754;12.990;2023-04-30T21:42:01;59.95;;;33.05;;
5416;SDS011;2731;50.754;12.990;2023-04-30T21:44:30;50.22;;;27.58;;
5416;SDS011;2731;50.754;12.990;2023-04-30T21:46:56;52.97;;;29.63;;
5416;SDS011;2731;50.754;12.990;2023-04-30T21:49:23;51.70;;;27.95;;
5416;SDS011;2731;50.754;12.990;2023-04-30T21:51:50;56.88;;;29.48;;
5416;SDS011;2731;50.754;12.990;2023-04-30T21:54:16;58.25;;;30.42;;
5416;SDS011;2731;50.754;12.990;2023-04-30T21:56:43;44.75;;;25.88;;
5416;SDS011;2731;50.754;12.990;2023-04-30T21:59:09;47.97;;;24.40;;
5416;SDS011;2731;50.754;12.990;2023-04-30T22:01:36;47.38;;;25.55;;
5416;SDS011;2731;50.754;12.990;2023-04-30T22:04:02;58.50;;;30.35;;
5416;SDS011;2731;50.754;12.990;2023-04-30T22:06:29;78.68;;;40.65;;
5416;SDS011;2731;50.754;12.990;2023-04-30T22:08:55;84.32;;;40.58;;
5416;SDS011;2731;50.754;12.990;2023-04-30T22:11:21;79.88;;;42.00;;
5416;SDS011;2731;50.754;12.990;2023-04-30T22:13:49;65.25;;;33.58;;
5416;SDS011;2731;50.754;12.990;2023-04-30T22:16:15;57.50;;;28.20;;
5416;SDS011;2731;50.754;12.990;2023-04-30T22:18:41;49.55;;;24.73;;
5416;SDS011;2731;50.754;12.990;2023-04-30T22:21:07;41.72;;;22.60;;
5416;SDS011;2731;50.754;12.990;2023-04-30T22:23:33;41.20;;;22.13;;
5416;SDS011;2731;50.754;12.990;2023-04-30T22:25:59;43.55;;;23.50;;
5416;SDS011;2731;50.754;12.990;2023-04-30T22:28:28;40.55;;;24.30;;
5416;SDS011;2731;50.754;12.990;2023-04-30T22:30:57;60.15;;;27.77;;
5416;SDS011;2731;50.754;12.990;2023-04-30T22:33:23;66.80;;;32.28;;
5416;SDS011;2731;50.754;12.990;2023-04-30T22:35:49;63.58;;;36.67;;
5416;SDS011;2731;50.754;12.990;2023-04-30T22:38:16;76.63;;;37.80;;
5416;SDS011;2731;50.754;12.990;2023-04-30T22:40:42;65.35;;;34.63;;
5416;SDS011;2731;50.754;12.990;2023-04-30T22:43:08;70.35;;;37.22;;
5416;SDS011;2731;50.754;12.990;2023-04-30T22:45:36;66.35;;;35.97;;
5416;SDS011;2731;50.754;12.990;2023-04-30T22:48:05;71.57;;;36.63;;
5416;SDS011;2731;50.754;12.990;2023-04-30T22:50:32;64.05;;;36.20;;
5416;SDS011;2731;50.754;12.990;2023-04-30T22:52:58;69.78;;;37.33;;
5416;SDS011;2731;50.754;12.990;2023-04-30T22:55:25;66.63;;;35.00;;
5416;SDS011;2731;50.754;12.990;2023-04-30T22:57:52;63.00;;;36.88;;
5416;SDS011;2731;50.754;12.990;2023-04-30T23:00:18;67.70;;;36.58;;
5416;SDS011;2731;50.754;12.990;2023-04-30T23:02:48;70.53;;;36.72;;
5416;SDS011;2731;50.754;12.990;2023-04-30T23:05:16;71.47;;;37.67;;
5416;SDS011;2731;50.754;12.990;2023-04-30T23:07:44;78.35;;;39.20;;
5416;SDS011;2731;50.754;12.990;2023-04-30T23:10:14;79.45;;;39.05;;
5416;SDS011;2731;50.754;12.990;2023-04-30T23:12:43;83.70;;;43.42;;
5416;SDS011;2731;50.754;12.990;2023-04-30T23:15:09;77.03;;;38.83;;
5416;SDS011;2731;50.754;12.990;2023-04-30T23:17:36;80.10;;;40.70;;
5416;SDS011;2731;50.754;12.990;2023-04-30T23:20:05;78.68;;;40.65;;
5416;SDS011;2731;50.754;12.990;2023-04-30T23:22:33;76.15;;;40.10;;
5416;SDS011;2731;50.754;12.990;2023-04-30T23:25:02;82.72;;;40.30;;
5416;SDS011;2731;50.754;12.990;2023-04-30T23:27:30;73.05;;;38.00;;
5416;SDS011;2731;50.754;12.990;2023-04-30T23:29:58;65.22;;;36.03;;
5416;SDS011;2731;50.754;12.990;2023-04-30T23:32:26;66.75;;;37.95;;
5416;SDS011;2731;50.754;12.990;2023-04-30T23:34:53;61.92;;;33.83;;
5416;SDS011;2731;50.754;12.990;2023-04-30T23:37:24;66.78;;;35.08;;
5416;SDS011;2731;50.754;12.990;2023-04-30T23:40:01;68.53;;;33.47;;
5416;SDS011;2731;50.754;12.990;2023-04-30T23:42:41;58.15;;;31.42;;
5416;SDS011;2731;50.754;12.990;2023-04-30T23:45:10;57.25;;;31.58;;
5416;SDS011;2731;50.754;12.990;2023-04-30T23:47:38;59.65;;;30.85;;
5416;SDS011;2731;50.754;12.990;2023-04-30T23:50:07;60.03;;;32.80;;
5416;SDS011;2731;50.754;12.990;2023-04-30T23:52:34;59.17;;;31.88;;
5416;SDS011;2731;50.754;12.990;2023-04-30T23:55:02;67.15;;;33.20;;
5416;SDS011;2731;50.754;12.990;2023-04-30T23:57:29;59.63;;;31.77;;
5416;SDS011;2731;50.754;12.990;2023-04-30T23:59:59;70.22;;;34.17;;
